sensor_id;sensor_type;location;lat;lon;timestamp;P1;durP1;ratioP1;P2;durP2;ratioP2
77984;SDS011;67177;47.240;-1.546;2023-02-26T00:02:08;2.90;;;0.70;;
77984;SDS011;67177;47.240;-1.546;2023-02-26T00:04:35;2.70;;;0.70;;
77984;SDS011;67177;47.240;-1.546;2023-02-26T00:07:01;2.30;;;0.60;;
77984;SDS011;67177;47.240;-1.546;2023-02-26T00:09:28;2.58;;;0.60;;
77984;SDS011;67177;47.240;-1.546;2023-02-26T00:11:54;2.45;;;0.60;;
77984;SDS011;67177;47.240;-1.546;2023-02-26T00:14:20;2.90;;;0.70;;
77984;SDS011;67177;47.240;-1.546;2023-02-26T00:16:46;1.93;;;0.50;;
77984;SDS011;67177;47.240;-1.546;2023-02-26T00:19:18;1.95;;;0.50;;
77984;SDS011;67177;47.240;-1.546;2023-02-26T00:21:44;2.57;;;0.63;;
77984;SDS011;67177;47.240;-1.546;2023-02-26T00:24:10;2.13;;;0.50;;
77984;SDS011;67177;47.240;-1.546;2023-02-26T00:26:35;1.90;;;0.60;;
77984;SDS011;67177;47.240;-1.546;2023-02-26T00:29:01;3.00;;;0.70;;
77984;SDS011;67177;47.240;-1.546;2023-02-26T00:31:28;2.00;;;0.50;;
77984;SDS011;67177;47.240;-1.546;2023-02-26T00:33:54;2.08;;;0.60;;
77984;SDS011;67177;47.240;-1.546;2023-02-26T00:39:34;3.53;;;0.77;;
77984;SDS011;67177;47.240;-1.546;2023-02-26T00:42:07;2.88;;;0.70;;
77984;SDS011;67177;47.240;-1.546;2023-02-26T00:44:33;1.85;;;0.50;;
77984;SDS011;67177;47.240;-1.546;2023-02-26T00:52:38;2.38;;;0.70;;
77984;SDS011;67177;47.240;-1.546;2023-02-26T00:55:13;2.55;;;0.60;;
77984;SDS011;67177;47.240;-1.546;2023-02-26T00:57:39;3.00;;;0.70;;
77984;SDS011;67177;47.240;-1.546;2023-02-26T01:00:05;2.07;;;0.60;;
77984;SDS011;67177;47.240;-1.546;2023-02-26T01:02:33;2.72;;;0.70;;
77984;SDS011;67177;47.240;-1.546;2023-02-26T01:05:00;2.35;;;0.50;;
77984;SDS011;67177;47.240;-1.546;2023-02-26T01:07:26;2.20;;;0.60;;
77984;SDS011;67177;47.240;-1.546;2023-02-26T01:09:53;2.95;;;0.70;;
77984;SDS011;67177;47.240;-1.546;2023-02-26T01:12:19;2.45;;;0.65;;
77984;SDS011;67177;47.240;-1.546;2023-02-26T01:14:45;2.10;;;0.60;;
77984;SDS011;67177;47.240;-1.546;2023-02-26T01:17:16;3.10;;;0.63;;
77984;SDS011;67177;47.240;-1.546;2023-02-26T01:22:19;1.75;;;0.50;;
77984;SDS011;67177;47.240;-1.546;2023-02-26T01:25:07;2.65;;;0.60;;
77984;SDS011;67177;47.240;-1.546;2023-02-26T01:27:38;3.33;;;0.67;;
77984;SDS011;67177;47.240;-1.546;2023-02-26T01:30:05;2.85;;;0.70;;
77984;SDS011;67177;47.240;-1.546;2023-02-26T01:32:42;2.63;;;0.60;;
77984;SDS011;67177;47.240;-1.546;2023-02-26T01:38:22;3.00;;;0.70;;
77984;SDS011;67177;47.240;-1.546;2023-02-26T01:49:36;3.00;;;0.60;;
77984;SDS011;67177;47.240;-1.546;2023-02-26T01:52:06;2.05;;;0.50;;
77984;SDS011;67177;47.240;-1.546;2023-02-26T01:54:51;2.33;;;0.63;;
77984;SDS011;67177;47.240;-1.546;2023-02-26T01:57:17;2.92;;;0.50;;
77984;SDS011;67177;47.240;-1.546;2023-02-26T01:59:45;3.30;;;0.70;;
77984;SDS011;67177;47.240;-1.546;2023-02-26T02:02:15;2.55;;;0.50;;
77984;SDS011;67177;47.240;-1.546;2023-02-26T02:04:44;1.90;;;0.50;;
77984;SDS011;67177;47.240;-1.546;2023-02-26T02:07:11;3.43;;;1.03;;
77984;SDS011;67177;47.240;-1.546;2023-02-26T02:09:37;2.33;;;0.43;;
77984;SDS011;67177;47.240;-1.546;2023-02-26T02:18:00;3.95;;;0.60;;
77984;SDS011;67177;47.240;-1.546;2023-02-26T02:20:51;1.83;;;0.50;;
77984;SDS011;67177;47.240;-1.546;2023-02-26T02:26:35;2.33;;;0.60;;
77984;SDS011;67177;47.240;-1.546;2023-02-26T02:34:39;2.70;;;0.60;;
77984;SDS011;67177;47.240;-1.546;2023-02-26T02:39:43;2.30;;;0.50;;
77984;SDS011;67177;47.240;-1.546;2023-02-26T02:45:05;1.80;;;0.50;;
77984;SDS011;67177;47.240;-1.546;2023-02-26T02:47:35;2.58;;;0.50;;
77984;SDS011;67177;47.240;-1.546;2023-02-26T02:50:06;2.10;;;0.50;;
77984;SDS011;67177;47.240;-1.546;2023-02-26T02:52:39;2.55;;;0.50;;
77984;SDS011;67177;47.240;-1.546;2023-02-26T02:58:02;2.00;;;0.60;;
77984;SDS011;67177;47.240;-1.546;2023-02-26T03:00:31;2.33;;;0.60;;
77984;SDS011;67177;47.240;-1.546;2023-02-26T03:05:30;2.35;;;0.73;;
77984;SDS011;67177;47.240;-1.546;2023-02-26T03:07:56;2.23;;;0.60;;
77984;SDS011;67177;47.240;-1.546;2023-02-26T03:10:26;2.38;;;0.50;;
77984;SDS011;67177;47.240;-1.546;2023-02-26T03:12:52;2.33;;;0.60;;
77984;SDS011;67177;47.240;-1.546;2023-02-26T03:15:20;2.53;;;0.63;;
77984;SDS011;67177;47.240;-1.546;2023-02-26T03:20:34;2.28;;;0.60;;
77984;SDS011;67177;47.240;-1.546;2023-02-26T03:23:18;2.00;;;0.50;;
77984;SDS011;67177;47.240;-1.546;2023-02-26T03:25:51;2.88;;;0.60;;
77984;SDS011;67177;47.240;-1.546;2023-02-26T03:28:31;2.17;;;0.60;;
77984;SDS011;67177;47.240;-1.546;2023-02-26T03:31:26;3.03;;;0.57;;
77984;SDS011;67177;47.240;-1.546;2023-02-26T03:36:30;2.13;;;0.60;;
77984;SDS011;67177;47.240;-1.546;2023-02-26T03:42:08;2.88;;;0.80;;
77984;SDS011;67177;47.240;-1.546;2023-02-26T03:44:36;3.05;;;0.63;;
77984;SDS011;67177;47.240;-1.546;2023-02-26T03:47:12;2.75;;;0.73;;
77984;SDS011;67177;47.240;-1.546;2023-02-26T03:49:43;2.40;;;0.60;;
77984;SDS011;67177;47.240;-1.546;2023-02-26T03:52:14;1.83;;;0.50;;
77984;SDS011;67177;47.240;-1.546;2023-02-26T03:54:41;2.20;;;0.60;;
77984;SDS011;67177;47.240;-1.546;2023-02-26T03:57:13;2.97;;;0.80;;
77984;SDS011;67177;47.240;-1.546;2023-02-26T03:59:39;2.97;;;0.60;;
77984;SDS011;67177;47.240;-1.546;2023-02-26T04:05:20;1.88;;;0.60;;
77984;SDS011;67177;47.240;-1.546;2023-02-26T04:07:59;2.80;;;0.77;;
77984;SDS011;67177;47.240;-1.546;2023-02-26T04:10:47;2.25;;;0.50;;
77984;SDS011;67177;47.240;-1.546;2023-02-26T04:13:11;2.72;;;0.75;;
77984;SDS011;67177;47.240;-1.546;2023-02-26T04:15:36;3.27;;;0.60;;
77984;SDS011;67177;47.240;-1.546;2023-02-26T04:18:02;2.55;;;0.70;;
77984;SDS011;67177;47.240;-1.546;2023-02-26T04:20:28;2.88;;;0.73;;
77984;SDS011;67177;47.240;-1.546;2023-02-26T04:22:54;1.70;;;0.53;;
77984;SDS011;67177;47.240;-1.546;2023-02-26T04:25:20;2.15;;;0.55;;
77984;SDS011;67177;47.240;-1.546;2023-02-26T04:27:45;2.47;;;0.60;;
77984;SDS011;67177;47.240;-1.546;2023-02-26T04:30:11;2.08;;;0.60;;
77984;SDS011;67177;47.240;-1.546;2023-02-26T04:32:37;2.57;;;0.70;;
77984;SDS011;67177;47.240;-1.546;2023-02-26T04:35:02;2.38;;;0.60;;
77984;SDS011;67177;47.240;-1.546;2023-02-26T04:37:28;2.40;;;0.70;;
77984;SDS011;67177;47.240;-1.546;2023-02-26T04:39:54;2.58;;;0.60;;
77984;SDS011;67177;47.240;-1.546;2023-02-26T04:42:20;2.03;;;0.60;;
77984;SDS011;67177;47.240;-1.546;2023-02-26T04:44:46;2.33;;;0.60;;
77984;SDS011;67177;47.240;-1.546;2023-02-26T04:47:12;2.72;;;0.70;;
77984;SDS011;67177;47.240;-1.546;2023-02-26T04:49:38;2.73;;;0.80;;
77984;SDS011;67177;47.240;-1.546;2023-02-26T04:52:03;2.13;;;0.60;;
77984;SDS011;67177;47.240;-1.546;2023-02-26T04:54:29;1.97;;;0.53;;
77984;SDS011;67177;47.240;-1.546;2023-02-26T04:56:55;2.53;;;0.70;;
77984;SDS011;67177;47.240;-1.546;2023-02-26T04:59:21;2.03;;;0.50;;
77984;SDS011;67177;47.240;-1.546;2023-02-26T05:01:47;2.30;;;0.60;;
77984;SDS011;67177;47.240;-1.546;2023-02-26T05:04:12;2.20;;;0.60;;
77984;SDS011;67177;47.240;-1.546;2023-02-26T05:06:38;2.30;;;0.50;;
77984;SDS011;67177;47.240;-1.546;2023-02-26T05:09:04;2.67;;;0.70;;
77984;SDS011;67177;47.240;-1.546;2023-02-26T05:11:29;2.35;;;0.70;;
77984;SDS011;67177;47.240;-1.546;2023-02-26T05:13:55;2.45;;;0.70;;
77984;SDS011;67177;47.240;-1.546;2023-02-26T05:16:21;3.30;;;0.82;;
77984;SDS011;67177;47.240;-1.546;2023-02-26T05:18:47;2.70;;;0.73;;
77984;SDS011;67177;47.240;-1.546;2023-02-26T05:21:12;2.33;;;0.65;;
77984;SDS011;67177;47.240;-1.546;2023-02-26T05:23:38;2.37;;;0.60;;
77984;SDS011;67177;47.240;-1.546;2023-02-26T05:26:04;3.37;;;0.70;;
77984;SDS011;67177;47.240;-1.546;2023-02-26T05:28:29;3.42;;;0.60;;
77984;SDS011;67177;47.240;-1.546;2023-02-26T05:30:56;2.43;;;0.60;;
77984;SDS011;67177;47.240;-1.546;2023-02-26T05:33:22;2.25;;;0.68;;
77984;SDS011;67177;47.240;-1.546;2023-02-26T05:35:48;2.47;;;0.68;;
77984;SDS011;67177;47.240;-1.546;2023-02-26T05:38:14;2.47;;;0.70;;
77984;SDS011;67177;47.240;-1.546;2023-02-26T05:40:39;1.80;;;0.50;;
77984;SDS011;67177;47.240;-1.546;2023-02-26T05:43:05;2.00;;;0.60;;
77984;SDS011;67177;47.240;-1.546;2023-02-26T05:45:31;1.80;;;0.50;;
77984;SDS011;67177;47.240;-1.546;2023-02-26T05:47:57;2.63;;;0.67;;
77984;SDS011;67177;47.240;-1.546;2023-02-26T05:50:22;2.03;;;0.60;;
77984;SDS011;67177;47.240;-1.546;2023-02-26T05:52:48;1.67;;;0.50;;
77984;SDS011;67177;47.240;-1.546;2023-02-26T05:55:14;2.47;;;0.70;;
77984;SDS011;67177;47.240;-1.546;2023-02-26T05:57:40;2.53;;;0.60;;
77984;SDS011;67177;47.240;-1.546;2023-02-26T06:00:06;3.10;;;0.70;;
77984;SDS011;67177;47.240;-1.546;2023-02-26T06:02:33;2.67;;;0.70;;
77984;SDS011;67177;47.240;-1.546;2023-02-26T06:04:58;2.90;;;0.87;;
77984;SDS011;67177;47.240;-1.546;2023-02-26T06:07:24;2.20;;;0.60;;
77984;SDS011;67177;47.240;-1.546;2023-02-26T06:09:50;2.50;;;0.60;;
77984;SDS011;67177;47.240;-1.546;2023-02-26T06:12:15;2.90;;;0.67;;
77984;SDS011;67177;47.240;-1.546;2023-02-26T06:14:41;3.00;;;0.70;;
77984;SDS011;67177;47.240;-1.546;2023-02-26T06:17:07;2.13;;;0.60;;
77984;SDS011;67177;47.240;-1.546;2023-02-26T06:19:32;3.83;;;0.70;;
77984;SDS011;67177;47.240;-1.546;2023-02-26T06:21:58;2.15;;;0.60;;
77984;SDS011;67177;47.240;-1.546;2023-02-26T06:24:24;2.47;;;0.67;;
77984;SDS011;67177;47.240;-1.546;2023-02-26T06:26:50;3.00;;;1.05;;
77984;SDS011;67177;47.240;-1.546;2023-02-26T06:29:16;1.73;;;0.50;;
77984;SDS011;67177;47.240;-1.546;2023-02-26T06:31:44;2.22;;;0.60;;
77984;SDS011;67177;47.240;-1.546;2023-02-26T06:34:10;1.93;;;0.50;;
77984;SDS011;67177;47.240;-1.546;2023-02-26T06:36:36;1.75;;;0.60;;
77984;SDS011;67177;47.240;-1.546;2023-02-26T06:39:01;2.13;;;0.60;;
77984;SDS011;67177;47.240;-1.546;2023-02-26T06:41:27;2.08;;;0.60;;
77984;SDS011;67177;47.240;-1.546;2023-02-26T06:43:53;2.38;;;0.63;;
77984;SDS011;67177;47.240;-1.546;2023-02-26T06:46:19;1.90;;;0.50;;
77984;SDS011;67177;47.240;-1.546;2023-02-26T06:48:45;2.50;;;0.70;;
77984;SDS011;67177;47.240;-1.546;2023-02-26T06:51:10;2.33;;;0.60;;
77984;SDS011;67177;47.240;-1.546;2023-02-26T06:53:36;2.22;;;0.60;;
77984;SDS011;67177;47.240;-1.546;2023-02-26T06:56:02;2.17;;;0.50;;
77984;SDS011;67177;47.240;-1.546;2023-02-26T06:58:28;1.70;;;0.50;;
77984;SDS011;67177;47.240;-1.546;2023-02-26T07:00:54;2.37;;;0.60;;
77984;SDS011;67177;47.240;-1.546;2023-02-26T07:03:20;2.20;;;0.65;;
77984;SDS011;67177;47.240;-1.546;2023-02-26T07:05:46;2.00;;;0.60;;
77984;SDS011;67177;47.240;-1.546;2023-02-26T07:08:12;1.70;;;0.50;;
77984;SDS011;67177;47.240;-1.546;2023-02-26T07:10:38;2.22;;;0.60;;
77984;SDS011;67177;47.240;-1.546;2023-02-26T07:13:05;2.93;;;0.60;;
77984;SDS011;67177;47.240;-1.546;2023-02-26T07:15:30;2.30;;;0.60;;
77984;SDS011;67177;47.240;-1.546;2023-02-26T07:17:56;2.38;;;0.70;;
77984;SDS011;67177;47.240;-1.546;2023-02-26T07:20:24;2.37;;;0.67;;
77984;SDS011;67177;47.240;-1.546;2023-02-26T07:22:50;1.88;;;0.60;;
77984;SDS011;67177;47.240;-1.546;2023-02-26T07:25:16;3.25;;;0.60;;
77984;SDS011;67177;47.240;-1.546;2023-02-26T07:27:42;2.80;;;0.50;;
77984;SDS011;67177;47.240;-1.546;2023-02-26T07:30:07;2.50;;;0.60;;
77984;SDS011;67177;47.240;-1.546;2023-02-26T07:32:34;2.60;;;0.50;;
77984;SDS011;67177;47.240;-1.546;2023-02-26T07:34:59;1.65;;;0.50;;
77984;SDS011;67177;47.240;-1.546;2023-02-26T07:37:25;2.08;;;0.60;;
77984;SDS011;67177;47.240;-1.546;2023-02-26T07:39:51;2.73;;;0.60;;
77984;SDS011;67177;47.240;-1.546;2023-02-26T07:42:17;2.53;;;0.70;;
77984;SDS011;67177;47.240;-1.546;2023-02-26T07:44:42;2.00;;;0.60;;
77984;SDS011;67177;47.240;-1.546;2023-02-26T07:47:09;1.90;;;0.50;;
77984;SDS011;67177;47.240;-1.546;2023-02-26T07:49:35;1.50;;;0.50;;
77984;SDS011;67177;47.240;-1.546;2023-02-26T07:52:01;3.20;;;0.60;;
77984;SDS011;67177;47.240;-1.546;2023-02-26T07:54:28;3.13;;;0.65;;
77984;SDS011;67177;47.240;-1.546;2023-02-26T07:56:53;2.60;;;0.50;;
77984;SDS011;67177;47.240;-1.546;2023-02-26T07:59:19;2.28;;;0.60;;
77984;SDS011;67177;47.240;-1.546;2023-02-26T08:01:45;2.28;;;0.60;;
77984;SDS011;67177;47.240;-1.546;2023-02-26T08:04:11;1.97;;;0.60;;
77984;SDS011;67177;47.240;-1.546;2023-02-26T08:06:36;1.57;;;0.50;;
77984;SDS011;67177;47.240;-1.546;2023-02-26T08:09:02;1.73;;;0.50;;
77984;SDS011;67177;47.240;-1.546;2023-02-26T08:11:29;2.38;;;0.60;;
77984;SDS011;67177;47.240;-1.546;2023-02-26T08:13:56;2.27;;;0.67;;
77984;SDS011;67177;47.240;-1.546;2023-02-26T08:16:23;1.67;;;0.50;;
77984;SDS011;67177;47.240;-1.546;2023-02-26T08:18:48;2.63;;;0.70;;
77984;SDS011;67177;47.240;-1.546;2023-02-26T08:21:14;3.20;;;0.80;;
77984;SDS011;67177;47.240;-1.546;2023-02-26T08:23:40;2.20;;;0.63;;
77984;SDS011;67177;47.240;-1.546;2023-02-26T08:26:06;2.80;;;0.60;;
77984;SDS011;67177;47.240;-1.546;2023-02-26T08:28:33;1.98;;;0.57;;
77984;SDS011;67177;47.240;-1.546;2023-02-26T08:30:59;2.63;;;0.63;;
77984;SDS011;67177;47.240;-1.546;2023-02-26T08:33:26;2.22;;;0.57;;
77984;SDS011;67177;47.240;-1.546;2023-02-26T08:35:52;1.88;;;0.50;;
77984;SDS011;67177;47.240;-1.546;2023-02-26T08:38:18;2.50;;;0.60;;
77984;SDS011;67177;47.240;-1.546;2023-02-26T08:40:44;2.15;;;0.60;;
77984;SDS011;67177;47.240;-1.546;2023-02-26T08:43:09;1.77;;;0.50;;
77984;SDS011;67177;47.240;-1.546;2023-02-26T08:45:38;2.35;;;0.60;;
77984;SDS011;67177;47.240;-1.546;2023-02-26T08:48:04;2.20;;;0.60;;
77984;SDS011;67177;47.240;-1.546;2023-02-26T08:50:29;1.67;;;0.60;;
77984;SDS011;67177;47.240;-1.546;2023-02-26T08:52:55;2.47;;;0.60;;
77984;SDS011;67177;47.240;-1.546;2023-02-26T08:55:21;2.58;;;0.60;;
77984;SDS011;67177;47.240;-1.546;2023-02-26T08:57:47;2.17;;;0.68;;
77984;SDS011;67177;47.240;-1.546;2023-02-26T09:00:13;2.53;;;0.65;;
77984;SDS011;67177;47.240;-1.546;2023-02-26T09:02:42;1.98;;;0.60;;
77984;SDS011;67177;47.240;-1.546;2023-02-26T09:05:09;2.20;;;0.53;;
77984;SDS011;67177;47.240;-1.546;2023-02-26T09:07:36;2.42;;;0.60;;
77984;SDS011;67177;47.240;-1.546;2023-02-26T09:10:03;5.82;;;2.78;;
77984;SDS011;67177;47.240;-1.546;2023-02-26T09:12:30;8.80;;;3.10;;
77984;SDS011;67177;47.240;-1.546;2023-02-26T09:14:56;6.80;;;2.00;;
77984;SDS011;67177;47.240;-1.546;2023-02-26T09:17:23;5.53;;;1.90;;
77984;SDS011;67177;47.240;-1.546;2023-02-26T09:19:49;10.13;;;1.83;;
77984;SDS011;67177;47.240;-1.546;2023-02-26T09:22:15;6.68;;;1.90;;
77984;SDS011;67177;47.240;-1.546;2023-02-26T09:24:41;6.53;;;2.00;;
77984;SDS011;67177;47.240;-1.546;2023-02-26T09:27:07;5.05;;;1.83;;
77984;SDS011;67177;47.240;-1.546;2023-02-26T09:29:33;4.83;;;1.70;;
77984;SDS011;67177;47.240;-1.546;2023-02-26T09:31:59;7.60;;;1.23;;
77984;SDS011;67177;47.240;-1.546;2023-02-26T09:34:24;4.28;;;1.30;;
77984;SDS011;67177;47.240;-1.546;2023-02-26T09:36:50;5.70;;;1.30;;
77984;SDS011;67177;47.240;-1.546;2023-02-26T09:39:16;4.78;;;1.10;;
77984;SDS011;67177;47.240;-1.546;2023-02-26T09:41:49;4.53;;;1.30;;
77984;SDS011;67177;47.240;-1.546;2023-02-26T09:44:27;4.25;;;1.00;;
77984;SDS011;67177;47.240;-1.546;2023-02-26T09:55:02;4.78;;;1.00;;
77984;SDS011;67177;47.240;-1.546;2023-02-26T09:57:36;3.53;;;0.80;;
77984;SDS011;67177;47.240;-1.546;2023-02-26T10:00:16;4.07;;;0.98;;
77984;SDS011;67177;47.240;-1.546;2023-02-26T10:08:03;4.35;;;0.90;;
77984;SDS011;67177;47.240;-1.546;2023-02-26T10:16:04;4.17;;;0.80;;
77984;SDS011;67177;47.240;-1.546;2023-02-26T10:18:53;3.63;;;0.93;;
77984;SDS011;67177;47.240;-1.546;2023-02-26T10:24:05;3.42;;;0.90;;
77984;SDS011;67177;47.240;-1.546;2023-02-26T10:27:08;3.72;;;0.80;;
77984;SDS011;67177;47.240;-1.546;2023-02-26T10:29:44;4.80;;;0.90;;
77984;SDS011;67177;47.240;-1.546;2023-02-26T10:40:28;13.23;;;1.15;;
77984;SDS011;67177;47.240;-1.546;2023-02-26T10:52:23;4.78;;;1.00;;
77984;SDS011;67177;47.240;-1.546;2023-02-26T11:00:44;3.28;;;0.60;;
77984;SDS011;67177;47.240;-1.546;2023-02-26T11:03:15;3.97;;;0.90;;
77984;SDS011;67177;47.240;-1.546;2023-02-26T11:05:45;2.80;;;0.63;;
77984;SDS011;67177;47.240;-1.546;2023-02-26T11:08:19;4.18;;;0.93;;
77984;SDS011;67177;47.240;-1.546;2023-02-26T11:10:51;4.23;;;0.73;;
77984;SDS011;67177;47.240;-1.546;2023-02-26T11:13:20;4.38;;;0.80;;
77984;SDS011;67177;47.240;-1.546;2023-02-26T11:15:47;6.00;;;1.52;;
77984;SDS011;67177;47.240;-1.546;2023-02-26T11:18:26;5.65;;;1.40;;
77984;SDS011;67177;47.240;-1.546;2023-02-26T11:20:57;4.47;;;1.00;;
77984;SDS011;67177;47.240;-1.546;2023-02-26T11:23:25;4.73;;;1.07;;
77984;SDS011;67177;47.240;-1.546;2023-02-26T11:26:08;5.72;;;1.15;;
77984;SDS011;67177;47.240;-1.546;2023-02-26T11:28:43;4.22;;;1.02;;
77984;SDS011;67177;47.240;-1.546;2023-02-26T11:31:10;3.95;;;0.80;;
77984;SDS011;67177;47.240;-1.546;2023-02-26T11:33:43;3.92;;;0.80;;
77984;SDS011;67177;47.240;-1.546;2023-02-26T11:36:14;5.17;;;0.93;;
77984;SDS011;67177;47.240;-1.546;2023-02-26T11:38:46;5.47;;;0.80;;
77984;SDS011;67177;47.240;-1.546;2023-02-26T11:41:21;6.25;;;1.23;;
77984;SDS011;67177;47.240;-1.546;2023-02-26T11:43:48;4.97;;;1.00;;
77984;SDS011;67177;47.240;-1.546;2023-02-26T11:46:34;4.40;;;0.88;;
77984;SDS011;67177;47.240;-1.546;2023-02-26T11:49:07;4.77;;;0.90;;
77984;SDS011;67177;47.240;-1.546;2023-02-26T11:51:34;3.72;;;0.80;;
77984;SDS011;67177;47.240;-1.546;2023-02-26T11:54:00;4.35;;;1.00;;
77984;SDS011;67177;47.240;-1.546;2023-02-26T11:56:29;5.20;;;0.90;;
77984;SDS011;67177;47.240;-1.546;2023-02-26T11:59:14;3.85;;;0.75;;
77984;SDS011;67177;47.240;-1.546;2023-02-26T12:01:46;3.92;;;1.00;;
77984;SDS011;67177;47.240;-1.546;2023-02-26T12:04:14;5.18;;;0.88;;
77984;SDS011;67177;47.240;-1.546;2023-02-26T12:06:43;4.47;;;1.00;;
77984;SDS011;67177;47.240;-1.546;2023-02-26T12:09:11;4.67;;;0.83;;
77984;SDS011;67177;47.240;-1.546;2023-02-26T12:14:58;4.80;;;0.90;;
77984;SDS011;67177;47.240;-1.546;2023-02-26T12:23:01;4.57;;;1.20;;
77984;SDS011;67177;47.240;-1.546;2023-02-26T12:31:06;5.13;;;1.10;;
77984;SDS011;67177;47.240;-1.546;2023-02-26T12:47:34;8.63;;;1.30;;
77984;SDS011;67177;47.240;-1.546;2023-02-26T12:51:19;4.50;;;0.90;;
77984;SDS011;67177;47.240;-1.546;2023-02-26T12:56:28;7.13;;;1.23;;
77984;SDS011;67177;47.240;-1.546;2023-02-26T13:05:04;3.17;;;0.87;;
77984;SDS011;67177;47.240;-1.546;2023-02-26T13:10:36;4.35;;;1.20;;
77984;SDS011;67177;47.240;-1.546;2023-02-26T13:21:42;5.65;;;1.35;;
77984;SDS011;67177;47.240;-1.546;2023-02-26T13:24:25;3.85;;;1.15;;
77984;SDS011;67177;47.240;-1.546;2023-02-26T13:26:58;5.35;;;1.23;;
77984;SDS011;67177;47.240;-1.546;2023-02-26T13:29:27;5.22;;;1.25;;
77984;SDS011;67177;47.240;-1.546;2023-02-26T13:32:07;4.33;;;1.20;;
77984;SDS011;67177;47.240;-1.546;2023-02-26T13:34:49;5.30;;;1.40;;
77984;SDS011;67177;47.240;-1.546;2023-02-26T13:37:32;5.05;;;1.23;;
77984;SDS011;67177;47.240;-1.546;2023-02-26T13:40:23;4.97;;;1.35;;
77984;SDS011;67177;47.240;-1.546;2023-02-26T13:51:13;5.90;;;1.50;;
77984;SDS011;67177;47.240;-1.546;2023-02-26T13:53:58;4.72;;;1.38;;
77984;SDS011;67177;47.240;-1.546;2023-02-26T14:04:30;5.97;;;1.60;;
77984;SDS011;67177;47.240;-1.546;2023-02-26T14:07:10;6.53;;;1.65;;
77984;SDS011;67177;47.240;-1.546;2023-02-26T14:09:46;4.75;;;1.38;;
77984;SDS011;67177;47.240;-1.546;2023-02-26T14:12:23;6.13;;;1.37;;
77984;SDS011;67177;47.240;-1.546;2023-02-26T14:17:36;4.75;;;1.30;;
77984;SDS011;67177;47.240;-1.546;2023-02-26T14:22:50;5.40;;;1.60;;
77984;SDS011;67177;47.240;-1.546;2023-02-26T14:33:30;6.17;;;1.50;;
77984;SDS011;67177;47.240;-1.546;2023-02-26T14:36:03;4.60;;;1.40;;
77984;SDS011;67177;47.240;-1.546;2023-02-26T14:38:38;5.63;;;1.30;;
77984;SDS011;67177;47.240;-1.546;2023-02-26T14:46:40;4.50;;;1.30;;
77984;SDS011;67177;47.240;-1.546;2023-02-26T14:49:09;4.47;;;1.40;;
77984;SDS011;67177;47.240;-1.546;2023-02-26T14:57:24;5.07;;;1.50;;
77984;SDS011;67177;47.240;-1.546;2023-02-26T15:02:42;6.63;;;1.20;;
77984;SDS011;67177;47.240;-1.546;2023-02-26T15:13:22;4.03;;;1.00;;
77984;SDS011;67177;47.240;-1.546;2023-02-26T15:26:15;5.20;;;1.60;;
77984;SDS011;67177;47.240;-1.546;2023-02-26T15:28:47;5.65;;;1.17;;
77984;SDS011;67177;47.240;-1.546;2023-02-26T15:31:13;4.20;;;1.10;;
77984;SDS011;67177;47.240;-1.546;2023-02-26T15:33:42;5.10;;;1.23;;
77984;SDS011;67177;47.240;-1.546;2023-02-26T15:36:13;3.45;;;0.82;;
77984;SDS011;67177;47.240;-1.546;2023-02-26T15:38:47;3.87;;;0.90;;
77984;SDS011;67177;47.240;-1.546;2023-02-26T15:41:14;4.35;;;1.00;;
77984;SDS011;67177;47.240;-1.546;2023-02-26T15:43:43;4.05;;;0.90;;
77984;SDS011;67177;47.240;-1.546;2023-02-26T15:46:15;3.78;;;0.98;;
77984;SDS011;67177;47.240;-1.546;2023-02-26T15:48:41;3.40;;;0.80;;
77984;SDS011;67177;47.240;-1.546;2023-02-26T15:51:09;4.10;;;0.80;;
77984;SDS011;67177;47.240;-1.546;2023-02-26T15:53:37;4.13;;;1.00;;
77984;SDS011;67177;47.240;-1.546;2023-02-26T15:56:16;4.20;;;1.20;;
77984;SDS011;67177;47.240;-1.546;2023-02-26T15:58:48;3.63;;;0.90;;
77984;SDS011;67177;47.240;-1.546;2023-02-26T16:01:24;4.65;;;1.00;;
77984;SDS011;67177;47.240;-1.546;2023-02-26T16:03:51;3.63;;;0.80;;
77984;SDS011;67177;47.240;-1.546;2023-02-26T16:06:27;4.65;;;1.10;;
77984;SDS011;67177;47.240;-1.546;2023-02-26T16:08:59;4.50;;;1.13;;
77984;SDS011;67177;47.240;-1.546;2023-02-26T16:11:30;5.05;;;0.90;;
77984;SDS011;67177;47.240;-1.546;2023-02-26T16:14:02;3.97;;;1.00;;
77984;SDS011;67177;47.240;-1.546;2023-02-26T16:16:49;3.72;;;0.90;;
77984;SDS011;67177;47.240;-1.546;2023-02-26T16:19:17;3.58;;;0.80;;
77984;SDS011;67177;47.240;-1.546;2023-02-26T16:21:52;3.08;;;0.70;;
77984;SDS011;67177;47.240;-1.546;2023-02-26T16:24:19;3.90;;;1.10;;
77984;SDS011;67177;47.240;-1.546;2023-02-26T16:26:51;3.83;;;0.90;;
77984;SDS011;67177;47.240;-1.546;2023-02-26T16:29:22;4.30;;;0.90;;
77984;SDS011;67177;47.240;-1.546;2023-02-26T16:31:51;4.70;;;1.10;;
77984;SDS011;67177;47.240;-1.546;2023-02-26T16:34:22;5.68;;;1.00;;
77984;SDS011;67177;47.240;-1.546;2023-02-26T16:36:54;3.95;;;1.00;;
77984;SDS011;67177;47.240;-1.546;2023-02-26T16:39:28;4.20;;;1.07;;
77984;SDS011;67177;47.240;-1.546;2023-02-26T16:42:07;4.03;;;0.90;;
77984;SDS011;67177;47.240;-1.546;2023-02-26T16:44:36;3.42;;;0.82;;
77984;SDS011;67177;47.240;-1.546;2023-02-26T16:47:08;3.20;;;0.90;;
77984;SDS011;67177;47.240;-1.546;2023-02-26T16:49:35;4.15;;;1.08;;
77984;SDS011;67177;47.240;-1.546;2023-02-26T16:52:03;4.07;;;1.00;;
77984;SDS011;67177;47.240;-1.546;2023-02-26T16:54:31;4.35;;;1.00;;
77984;SDS011;67177;47.240;-1.546;2023-02-26T16:59:31;3.80;;;0.90;;
77984;SDS011;67177;47.240;-1.546;2023-02-26T17:02:23;4.55;;;1.00;;
77984;SDS011;67177;47.240;-1.546;2023-02-26T17:04:58;4.77;;;1.13;;
77984;SDS011;67177;47.240;-1.546;2023-02-26T17:07:34;4.47;;;1.10;;
77984;SDS011;67177;47.240;-1.546;2023-02-26T17:10:17;5.97;;;1.33;;
77984;SDS011;67177;47.240;-1.546;2023-02-26T17:12:49;5.18;;;1.23;;
77984;SDS011;67177;47.240;-1.546;2023-02-26T17:15:18;3.88;;;1.05;;
77984;SDS011;67177;47.240;-1.546;2023-02-26T17:18:00;5.00;;;1.40;;
77984;SDS011;67177;47.240;-1.546;2023-02-26T17:20:27;3.42;;;1.00;;
77984;SDS011;67177;47.240;-1.546;2023-02-26T17:22:54;4.25;;;0.90;;
77984;SDS011;67177;47.240;-1.546;2023-02-26T17:25:21;4.78;;;1.25;;
77984;SDS011;67177;47.240;-1.546;2023-02-26T17:27:49;3.90;;;0.83;;
77984;SDS011;67177;47.240;-1.546;2023-02-26T17:30:17;4.55;;;1.15;;
77984;SDS011;67177;47.240;-1.546;2023-02-26T17:32:45;3.85;;;0.90;;
77984;SDS011;67177;47.240;-1.546;2023-02-26T17:35:12;4.77;;;1.20;;
77984;SDS011;67177;47.240;-1.546;2023-02-26T17:37:38;4.18;;;1.00;;
77984;SDS011;67177;47.240;-1.546;2023-02-26T17:40:13;4.35;;;1.40;;
77984;SDS011;67177;47.240;-1.546;2023-02-26T17:42:46;4.60;;;1.45;;
77984;SDS011;67177;47.240;-1.546;2023-02-26T17:45:12;4.80;;;1.40;;
77984;SDS011;67177;47.240;-1.546;2023-02-26T17:47:39;5.57;;;2.05;;
77984;SDS011;67177;47.240;-1.546;2023-02-26T17:50:09;5.57;;;1.60;;
77984;SDS011;67177;47.240;-1.546;2023-02-26T17:52:49;5.18;;;1.40;;
77984;SDS011;67177;47.240;-1.546;2023-02-26T17:55:15;4.50;;;1.20;;
77984;SDS011;67177;47.240;-1.546;2023-02-26T17:57:41;6.07;;;1.80;;
77984;SDS011;67177;47.240;-1.546;2023-02-26T18:00:06;5.72;;;1.30;;
77984;SDS011;67177;47.240;-1.546;2023-02-26T18:02:34;4.30;;;1.07;;
77984;SDS011;67177;47.240;-1.546;2023-02-26T18:05:00;4.10;;;1.20;;
77984;SDS011;67177;47.240;-1.546;2023-02-26T18:07:25;4.20;;;1.13;;
77984;SDS011;67177;47.240;-1.546;2023-02-26T18:09:51;4.30;;;1.08;;
77984;SDS011;67177;47.240;-1.546;2023-02-26T18:12:20;4.83;;;1.40;;
77984;SDS011;67177;47.240;-1.546;2023-02-26T18:14:47;5.15;;;1.65;;
77984;SDS011;67177;47.240;-1.546;2023-02-26T18:17:14;4.53;;;1.52;;
77984;SDS011;67177;47.240;-1.546;2023-02-26T18:19:46;4.97;;;1.30;;
77984;SDS011;67177;47.240;-1.546;2023-02-26T18:22:14;6.00;;;1.55;;
77984;SDS011;67177;47.240;-1.546;2023-02-26T18:24:40;5.43;;;1.63;;
77984;SDS011;67177;47.240;-1.546;2023-02-26T18:27:13;5.07;;;1.63;;